sensor_id;sensor_type;location;lat;lon;timestamp;P1;durP1;ratioP1;P2;durP2;ratioP2
66342;SDS011;53144;51.524;5.080;2023-06-14T00:00:10;6.22;;;4.20;;
66342;SDS011;53144;51.524;5.080;2023-06-14T00:02:38;7.15;;;3.65;;
66342;SDS011;53144;51.524;5.080;2023-06-14T00:05:04;7.35;;;3.80;;
66342;SDS011;53144;51.524;5.080;2023-06-14T00:07:34;6.45;;;3.45;;
66342;SDS011;53144;51.524;5.080;2023-06-14T00:10:01;9.63;;;4.13;;
66342;SDS011;53144;51.524;5.080;2023-06-14T00:12:27;6.18;;;3.67;;
66342;SDS011;53144;51.524;5.080;2023-06-14T00:14:53;9.63;;;3.83;;
66342;SDS011;53144;51.524;5.080;2023-06-14T00:17:18;7.90;;;4.10;;
66342;SDS011;53144;51.524;5.080;2023-06-14T00:19:43;5.93;;;3.85;;
66342;SDS011;53144;51.524;5.080;2023-06-14T00:22:09;5.60;;;3.70;;
66342;SDS011;53144;51.524;5.080;2023-06-14T00:24:34;5.50;;;3.35;;
66342;SDS011;53144;51.524;5.080;2023-06-14T00:27:00;5.43;;;3.53;;
66342;SDS011;53144;51.524;5.080;2023-06-14T00:29:25;7.97;;;3.97;;
66342;SDS011;53144;51.524;5.080;2023-06-14T00:31:51;5.18;;;3.25;;
66342;SDS011;53144;51.524;5.080;2023-06-14T00:34:16;3.60;;;3.15;;
66342;SDS011;53144;51.524;5.080;2023-06-14T00:36:42;4.97;;;3.53;;
66342;SDS011;53144;51.524;5.080;2023-06-14T00:39:07;10.38;;;3.20;;
66342;SDS011;53144;51.524;5.080;2023-06-14T00:41:32;7.00;;;3.15;;
66342;SDS011;53144;51.524;5.080;2023-06-14T00:43:58;5.45;;;3.30;;
66342;SDS011;53144;51.524;5.080;2023-06-14T00:46:24;4.15;;;3.30;;
66342;SDS011;53144;51.524;5.080;2023-06-14T00:48:50;8.48;;;3.50;;
66342;SDS011;53144;51.524;5.080;2023-06-14T00:51:16;7.30;;;3.38;;
66342;SDS011;53144;51.524;5.080;2023-06-14T00:53:41;9.20;;;3.10;;
66342;SDS011;53144;51.524;5.080;2023-06-14T00:56:11;5.20;;;3.45;;
66342;SDS011;53144;51.524;5.080;2023-06-14T00:58:38;8.73;;;2.97;;
66342;SDS011;53144;51.524;5.080;2023-06-14T01:01:04;4.82;;;3.55;;
66342;SDS011;53144;51.524;5.080;2023-06-14T01:03:29;4.90;;;3.30;;
66342;SDS011;53144;51.524;5.080;2023-06-14T01:05:59;9.05;;;3.20;;
66342;SDS011;53144;51.524;5.080;2023-06-14T01:11:38;4.63;;;3.50;;
66342;SDS011;53144;51.524;5.080;2023-06-14T01:14:12;7.85;;;2.95;;
66342;SDS011;53144;51.524;5.080;2023-06-14T01:16:39;5.82;;;3.20;;
66342;SDS011;53144;51.524;5.080;2023-06-14T01:19:05;4.80;;;3.03;;
66342;SDS011;53144;51.524;5.080;2023-06-14T01:21:37;7.38;;;3.20;;
66342;SDS011;53144;51.524;5.080;2023-06-14T01:24:06;5.25;;;3.30;;
66342;SDS011;53144;51.524;5.080;2023-06-14T01:26:34;4.57;;;2.97;;
66342;SDS011;53144;51.524;5.080;2023-06-14T01:29:02;5.22;;;3.10;;
66342;SDS011;53144;51.524;5.080;2023-06-14T01:31:28;4.70;;;3.10;;
66342;SDS011;53144;51.524;5.080;2023-06-14T01:33:54;7.82;;;3.15;;
66342;SDS011;53144;51.524;5.080;2023-06-14T01:36:20;8.82;;;3.80;;
66342;SDS011;53144;51.524;5.080;2023-06-14T01:38:48;4.65;;;3.30;;
66342;SDS011;53144;51.524;5.080;2023-06-14T01:41:15;7.07;;;3.30;;
66342;SDS011;53144;51.524;5.080;2023-06-14T01:43:42;9.15;;;3.55;;
66342;SDS011;53144;51.524;5.080;2023-06-14T01:46:08;5.88;;;3.22;;
66342;SDS011;53144;51.524;5.080;2023-06-14T01:48:35;6.55;;;3.67;;
66342;SDS011;53144;51.524;5.080;2023-06-14T01:51:00;6.00;;;3.60;;
66342;SDS011;53144;51.524;5.080;2023-06-14T01:53:26;8.40;;;3.65;;
66342;SDS011;53144;51.524;5.080;2023-06-14T01:55:51;3.95;;;3.38;;
66342;SDS011;53144;51.524;5.080;2023-06-14T01:58:19;5.43;;;3.47;;
66342;SDS011;53144;51.524;5.080;2023-06-14T02:00:44;6.43;;;3.42;;
66342;SDS011;53144;51.524;5.080;2023-06-14T02:03:10;5.28;;;3.20;;
66342;SDS011;53144;51.524;5.080;2023-06-14T02:05:36;6.50;;;3.78;;
66342;SDS011;53144;51.524;5.080;2023-06-14T02:08:04;7.53;;;3.50;;
66342;SDS011;53144;51.524;5.080;2023-06-14T02:10:30;7.45;;;3.10;;
66342;SDS011;53144;51.524;5.080;2023-06-14T02:12:55;7.80;;;3.50;;
66342;SDS011;53144;51.524;5.080;2023-06-14T02:15:20;5.75;;;3.80;;
66342;SDS011;53144;51.524;5.080;2023-06-14T02:17:47;9.38;;;3.15;;
66342;SDS011;53144;51.524;5.080;2023-06-14T02:20:12;4.25;;;3.25;;
66342;SDS011;53144;51.524;5.080;2023-06-14T02:22:38;5.20;;;3.45;;
66342;SDS011;53144;51.524;5.080;2023-06-14T02:25:04;5.82;;;3.28;;
66342;SDS011;53144;51.524;5.080;2023-06-14T02:27:30;7.00;;;3.42;;
66342;SDS011;53144;51.524;5.080;2023-06-14T02:29:55;5.35;;;3.17;;
66342;SDS011;53144;51.524;5.080;2023-06-14T02:32:21;6.43;;;3.38;;
66342;SDS011;53144;51.524;5.080;2023-06-14T02:34:46;6.03;;;3.05;;
66342;SDS011;53144;51.524;5.080;2023-06-14T02:37:15;7.65;;;3.25;;
66342;SDS011;53144;51.524;5.080;2023-06-14T02:39:41;8.18;;;3.45;;
66342;SDS011;53144;51.524;5.080;2023-06-14T02:42:06;5.05;;;3.30;;
66342;SDS011;53144;51.524;5.080;2023-06-14T02:44:32;14.95;;;3.83;;
66342;SDS011;53144;51.524;5.080;2023-06-14T02:46:57;8.15;;;3.53;;
66342;SDS011;53144;51.524;5.080;2023-06-14T02:49:25;4.95;;;3.30;;
66342;SDS011;53144;51.524;5.080;2023-06-14T02:51:51;4.30;;;3.20;;
66342;SDS011;53144;51.524;5.080;2023-06-14T02:54:16;8.27;;;3.58;;
66342;SDS011;53144;51.524;5.080;2023-06-14T02:56:41;8.48;;;3.10;;
66342;SDS011;53144;51.524;5.080;2023-06-14T02:59:07;5.10;;;3.38;;
66342;SDS011;53144;51.524;5.080;2023-06-14T03:01:34;5.05;;;3.42;;
66342;SDS011;53144;51.524;5.080;2023-06-14T03:04:00;6.78;;;3.58;;
66342;SDS011;53144;51.524;5.080;2023-06-14T03:06:27;5.70;;;3.30;;
66342;SDS011;53144;51.524;5.080;2023-06-14T03:08:55;5.53;;;3.17;;
66342;SDS011;53144;51.524;5.080;2023-06-14T03:11:24;7.97;;;3.83;;
66342;SDS011;53144;51.524;5.080;2023-06-14T03:13:50;7.72;;;3.38;;
66342;SDS011;53144;51.524;5.080;2023-06-14T03:16:16;6.88;;;3.33;;
66342;SDS011;53144;51.524;5.080;2023-06-14T03:18:44;4.90;;;3.30;;
66342;SDS011;53144;51.524;5.080;2023-06-14T03:21:10;8.40;;;3.20;;
66342;SDS011;53144;51.524;5.080;2023-06-14T03:23:36;10.35;;;3.55;;
66342;SDS011;53144;51.524;5.080;2023-06-14T03:26:02;6.72;;;3.30;;
66342;SDS011;53144;51.524;5.080;2023-06-14T03:28:27;6.55;;;3.03;;
66342;SDS011;53144;51.524;5.080;2023-06-14T03:30:52;6.55;;;3.58;;
66342;SDS011;53144;51.524;5.080;2023-06-14T03:33:18;6.88;;;3.45;;
66342;SDS011;53144;51.524;5.080;2023-06-14T03:35:44;5.18;;;3.33;;
66342;SDS011;53144;51.524;5.080;2023-06-14T03:38:09;5.78;;;3.22;;
66342;SDS011;53144;51.524;5.080;2023-06-14T03:40:35;6.88;;;3.50;;
66342;SDS011;53144;51.524;5.080;2023-06-14T03:43:00;6.15;;;3.35;;
66342;SDS011;53144;51.524;5.080;2023-06-14T03:45:25;4.10;;;3.13;;
66342;SDS011;53144;51.524;5.080;2023-06-14T03:47:51;7.40;;;3.20;;
66342;SDS011;53144;51.524;5.080;2023-06-14T03:50:17;4.22;;;2.97;;
66342;SDS011;53144;51.524;5.080;2023-06-14T03:52:43;4.30;;;3.13;;
66342;SDS011;53144;51.524;5.080;2023-06-14T03:55:09;6.93;;;3.10;;
66342;SDS011;53144;51.524;5.080;2023-06-14T03:57:35;8.85;;;3.17;;
66342;SDS011;53144;51.524;5.080;2023-06-14T04:00:00;4.72;;;3.70;;
66342;SDS011;53144;51.524;5.080;2023-06-14T04:02:26;5.47;;;3.42;;
66342;SDS011;53144;51.524;5.080;2023-06-14T04:04:54;10.00;;;3.58;;
66342;SDS011;53144;51.524;5.080;2023-06-14T04:07:19;11.25;;;3.83;;
66342;SDS011;53144;51.524;5.080;2023-06-14T04:09:45;8.30;;;3.65;;
66342;SDS011;53144;51.524;5.080;2023-06-14T04:12:11;8.07;;;3.20;;
66342;SDS011;53144;51.524;5.080;2023-06-14T04:14:37;7.72;;;3.40;;
66342;SDS011;53144;51.524;5.080;2023-06-14T04:17:04;7.82;;;3.45;;
66342;SDS011;53144;51.524;5.080;2023-06-14T04:19:29;5.57;;;3.22;;
66342;SDS011;53144;51.524;5.080;2023-06-14T04:21:55;7.22;;;3.40;;
66342;SDS011;53144;51.524;5.080;2023-06-14T04:24:21;5.30;;;3.60;;
66342;SDS011;53144;51.524;5.080;2023-06-14T04:26:48;6.20;;;3.35;;
66342;SDS011;53144;51.524;5.080;2023-06-14T04:29:14;6.63;;;3.72;;
66342;SDS011;53144;51.524;5.080;2023-06-14T04:31:41;7.10;;;3.22;;
66342;SDS011;53144;51.524;5.080;2023-06-14T04:34:07;7.72;;;3.25;;
66342;SDS011;53144;51.524;5.080;2023-06-14T04:36:33;9.05;;;3.55;;
66342;SDS011;53144;51.524;5.080;2023-06-14T04:39:06;6.03;;;3.17;;
66342;SDS011;53144;51.524;5.080;2023-06-14T04:41:32;8.73;;;3.95;;
66342;SDS011;53144;51.524;5.080;2023-06-14T04:43:58;5.32;;;3.10;;
66342;SDS011;53144;51.524;5.080;2023-06-14T04:46:27;4.47;;;3.55;;
66342;SDS011;53144;51.524;5.080;2023-06-14T04:48:53;6.65;;;3.13;;
66342;SDS011;53144;51.524;5.080;2023-06-14T04:51:19;5.65;;;3.63;;
66342;SDS011;53144;51.524;5.080;2023-06-14T04:53:47;8.13;;;3.58;;
66342;SDS011;53144;51.524;5.080;2023-06-14T04:56:14;6.43;;;3.40;;
66342;SDS011;53144;51.524;5.080;2023-06-14T04:58:40;6.47;;;3.63;;
66342;SDS011;53144;51.524;5.080;2023-06-14T05:01:05;5.55;;;3.10;;
66342;SDS011;53144;51.524;5.080;2023-06-14T05:03:34;5.68;;;3.22;;
66342;SDS011;53144;51.524;5.080;2023-06-14T05:05:59;8.07;;;4.28;;
66342;SDS011;53144;51.524;5.080;2023-06-14T05:08:25;7.70;;;3.83;;
66342;SDS011;53144;51.524;5.080;2023-06-14T05:10:52;7.32;;;3.58;;
66342;SDS011;53144;51.524;5.080;2023-06-14T05:13:17;14.98;;;4.10;;
66342;SDS011;53144;51.524;5.080;2023-06-14T05:15:43;9.95;;;3.70;;
66342;SDS011;53144;51.524;5.080;2023-06-14T05:18:08;4.57;;;3.50;;
66342;SDS011;53144;51.524;5.080;2023-06-14T05:20:34;5.80;;;3.70;;
66342;SDS011;53144;51.524;5.080;2023-06-14T05:23:02;5.75;;;3.15;;
66342;SDS011;53144;51.524;5.080;2023-06-14T05:25:27;9.55;;;3.30;;
66342;SDS011;53144;51.524;5.080;2023-06-14T05:27:53;9.02;;;3.67;;
66342;SDS011;53144;51.524;5.080;2023-06-14T05:30:18;7.72;;;3.60;;
66342;SDS011;53144;51.524;5.080;2023-06-14T05:32:44;11.85;;;3.20;;
66342;SDS011;53144;51.524;5.080;2023-06-14T05:35:09;4.97;;;3.78;;
66342;SDS011;53144;51.524;5.080;2023-06-14T05:37:35;12.63;;;4.10;;
66342;SDS011;53144;51.524;5.080;2023-06-14T05:40:01;7.97;;;3.92;;
66342;SDS011;53144;51.524;5.080;2023-06-14T05:42:30;8.15;;;3.22;;
66342;SDS011;53144;51.524;5.080;2023-06-14T05:44:55;7.30;;;3.67;;
66342;SDS011;53144;51.524;5.080;2023-06-14T05:47:21;9.13;;;3.90;;
66342;SDS011;53144;51.524;5.080;2023-06-14T05:49:46;7.30;;;4.10;;
66342;SDS011;53144;51.524;5.080;2023-06-14T05:52:11;9.23;;;4.30;;
66342;SDS011;53144;51.524;5.080;2023-06-14T05:54:38;9.68;;;4.47;;
66342;SDS011;53144;51.524;5.080;2023-06-14T05:57:03;10.68;;;4.07;;
66342;SDS011;53144;51.524;5.080;2023-06-14T05:59:31;8.18;;;3.60;;
66342;SDS011;53144;51.524;5.080;2023-06-14T06:01:57;12.20;;;4.00;;
66342;SDS011;53144;51.524;5.080;2023-06-14T06:04:22;13.25;;;4.20;;
66342;SDS011;53144;51.524;5.080;2023-06-14T06:06:48;14.18;;;4.25;;
66342;SDS011;53144;51.524;5.080;2023-06-14T06:09:14;9.65;;;3.97;;
66342;SDS011;53144;51.524;5.080;2023-06-14T06:11:39;6.93;;;4.03;;
66342;SDS011;53144;51.524;5.080;2023-06-14T06:14:05;10.02;;;3.55;;
66342;SDS011;53144;51.524;5.080;2023-06-14T06:16:30;10.20;;;3.90;;
66342;SDS011;53144;51.524;5.080;2023-06-14T06:18:56;12.95;;;3.78;;
66342;SDS011;53144;51.524;5.080;2023-06-14T06:21:21;8.73;;;3.78;;
66342;SDS011;53144;51.524;5.080;2023-06-14T06:23:47;10.05;;;3.78;;
66342;SDS011;53144;51.524;5.080;2023-06-14T06:26:12;12.27;;;4.05;;
66342;SDS011;53144;51.524;5.080;2023-06-14T06:28:38;10.10;;;3.78;;
66342;SDS011;53144;51.524;5.080;2023-06-14T06:31:03;5.38;;;3.65;;
66342;SDS011;53144;51.524;5.080;2023-06-14T06:33:28;10.10;;;3.90;;
66342;SDS011;53144;51.524;5.080;2023-06-14T06:35:54;11.38;;;4.10;;
66342;SDS011;53144;51.524;5.080;2023-06-14T06:38:20;6.50;;;3.60;;
66342;SDS011;53144;51.524;5.080;2023-06-14T06:40:45;7.97;;;4.40;;
66342;SDS011;53144;51.524;5.080;2023-06-14T06:43:11;7.25;;;3.75;;
66342;SDS011;53144;51.524;5.080;2023-06-14T06:45:41;9.50;;;3.63;;
66342;SDS011;53144;51.524;5.080;2023-06-14T06:48:07;10.20;;;3.80;;
66342;SDS011;53144;51.524;5.080;2023-06-14T06:50:32;7.28;;;4.15;;
66342;SDS011;53144;51.524;5.080;2023-06-14T06:52:58;10.38;;;4.03;;
66342;SDS011;53144;51.524;5.080;2023-06-14T06:55:23;11.00;;;4.05;;
66342;SDS011;53144;51.524;5.080;2023-06-14T06:57:49;10.80;;;4.13;;
66342;SDS011;53144;51.524;5.080;2023-06-14T07:00:15;9.52;;;3.95;;
66342;SDS011;53144;51.524;5.080;2023-06-14T07:02:41;10.65;;;4.13;;
66342;SDS011;53144;51.524;5.080;2023-06-14T07:05:06;9.20;;;4.07;;
66342;SDS011;53144;51.524;5.080;2023-06-14T07:07:32;9.48;;;4.13;;
66342;SDS011;53144;51.524;5.080;2023-06-14T07:09:58;8.15;;;3.95;;
66342;SDS011;53144;51.524;5.080;2023-06-14T07:12:23;7.50;;;3.63;;
66342;SDS011;53144;51.524;5.080;2023-06-14T07:14:49;6.82;;;3.45;;
66342;SDS011;53144;51.524;5.080;2023-06-14T07:17:14;6.50;;;3.67;;
66342;SDS011;53144;51.524;5.080;2023-06-14T07:19:40;6.15;;;3.55;;
66342;SDS011;53144;51.524;5.080;2023-06-14T07:22:05;8.48;;;4.03;;
66342;SDS011;53144;51.524;5.080;2023-06-14T07:24:31;11.73;;;3.72;;
66342;SDS011;53144;51.524;5.080;2023-06-14T07:26:56;11.15;;;4.03;;
66342;SDS011;53144;51.524;5.080;2023-06-14T07:29:21;10.00;;;3.72;;
66342;SDS011;53144;51.524;5.080;2023-06-14T07:31:47;5.85;;;3.65;;
66342;SDS011;53144;51.524;5.080;2023-06-14T07:34:12;6.03;;;3.70;;
66342;SDS011;53144;51.524;5.080;2023-06-14T07:36:38;12.27;;;3.60;;
66342;SDS011;53144;51.524;5.080;2023-06-14T07:39:03;10.45;;;3.85;;
66342;SDS011;53144;51.524;5.080;2023-06-14T07:41:30;6.15;;;3.42;;
66342;SDS011;53144;51.524;5.080;2023-06-14T07:43:56;6.93;;;3.97;;
66342;SDS011;53144;51.524;5.080;2023-06-14T07:46:21;8.48;;;3.47;;
66342;SDS011;53144;51.524;5.080;2023-06-14T07:48:47;9.90;;;3.75;;
66342;SDS011;53144;51.524;5.080;2023-06-14T07:51:13;9.90;;;3.67;;
66342;SDS011;53144;51.524;5.080;2023-06-14T07:53:38;4.55;;;3.22;;
66342;SDS011;53144;51.524;5.080;2023-06-14T07:56:04;7.95;;;3.30;;
66342;SDS011;53144;51.524;5.080;2023-06-14T07:58:29;10.50;;;3.67;;
66342;SDS011;53144;51.524;5.080;2023-06-14T08:00:55;7.90;;;3.53;;
66342;SDS011;53144;51.524;5.080;2023-06-14T08:03:20;4.25;;;3.20;;
66342;SDS011;53144;51.524;5.080;2023-06-14T08:05:47;6.07;;;3.50;;
66342;SDS011;53144;51.524;5.080;2023-06-14T08:08:13;13.38;;;3.33;;
66342;SDS011;53144;51.524;5.080;2023-06-14T08:10:38;5.65;;;3.20;;
66342;SDS011;53144;51.524;5.080;2023-06-14T08:13:03;5.15;;;3.05;;
66342;SDS011;53144;51.524;5.080;2023-06-14T08:15:29;8.00;;;3.17;;
66342;SDS011;53144;51.524;5.080;2023-06-14T08:17:54;7.70;;;3.05;;
66342;SDS011;53144;51.524;5.080;2023-06-14T08:20:21;6.88;;;3.10;;
66342;SDS011;53144;51.524;5.080;2023-06-14T08:22:46;6.63;;;3.35;;
66342;SDS011;53144;51.524;5.080;2023-06-14T08:25:13;5.80;;;3.30;;
66342;SDS011;53144;51.524;5.080;2023-06-14T08:27:38;7.30;;;3.10;;
66342;SDS011;53144;51.524;5.080;2023-06-14T08:30:04;5.93;;;3.03;;
66342;SDS011;53144;51.524;5.080;2023-06-14T08:32:30;5.28;;;2.97;;
66342;SDS011;53144;51.524;5.080;2023-06-14T08:34:55;4.65;;;3.35;;
66342;SDS011;53144;51.524;5.080;2023-06-14T08:37:21;6.28;;;3.35;;
66342;SDS011;53144;51.524;5.080;2023-06-14T08:39:46;8.65;;;3.30;;
66342;SDS011;53144;51.524;5.080;2023-06-14T08:42:12;10.13;;;3.25;;
66342;SDS011;53144;51.524;5.080;2023-06-14T08:44:39;6.72;;;3.08;;
66342;SDS011;53144;51.524;5.080;2023-06-14T08:47:05;5.32;;;2.92;;
66342;SDS011;53144;51.524;5.080;2023-06-14T08:49:33;10.13;;;3.63;;
66342;SDS011;53144;51.524;5.080;2023-06-14T08:51:59;11.82;;;3.42;;
66342;SDS011;53144;51.524;5.080;2023-06-14T08:54:26;4.80;;;3.08;;
66342;SDS011;53144;51.524;5.080;2023-06-14T08:56:55;5.10;;;2.95;;
66342;SDS011;53144;51.524;5.080;2023-06-14T08:59:27;8.73;;;2.72;;
66342;SDS011;53144;51.524;5.080;2023-06-14T09:01:53;5.30;;;3.03;;
66342;SDS011;53144;51.524;5.080;2023-06-14T09:04:23;5.35;;;2.97;;
66342;SDS011;53144;51.524;5.080;2023-06-14T09:06:54;5.78;;;2.80;;
66342;SDS011;53144;51.524;5.080;2023-06-14T09:09:20;4.50;;;2.83;;
66342;SDS011;53144;51.524;5.080;2023-06-14T09:11:48;5.65;;;2.60;;
66342;SDS011;53144;51.524;5.080;2023-06-14T09:14:14;9.38;;;2.65;;
66342;SDS011;53144;51.524;5.080;2023-06-14T09:16:40;4.90;;;2.50;;
66342;SDS011;53144;51.524;5.080;2023-06-14T09:19:05;7.28;;;2.63;;
66342;SDS011;53144;51.524;5.080;2023-06-14T09:21:33;6.00;;;2.55;;
66342;SDS011;53144;51.524;5.080;2023-06-14T09:24:01;9.13;;;2.45;;
66342;SDS011;53144;51.524;5.080;2023-06-14T09:26:27;17.05;;;2.90;;
66342;SDS011;53144;51.524;5.080;2023-06-14T09:28:52;9.32;;;2.50;;
66342;SDS011;53144;51.524;5.080;2023-06-14T09:31:19;10.48;;;2.80;;
66342;SDS011;53144;51.524;5.080;2023-06-14T09:33:45;3.75;;;2.30;;
66342;SDS011;53144;51.524;5.080;2023-06-14T09:36:21;6.05;;;2.63;;
66342;SDS011;53144;51.524;5.080;2023-06-14T09:38:54;5.03;;;2.10;;
66342;SDS011;53144;51.524;5.080;2023-06-14T09:41:30;2.65;;;2.10;;
66342;SDS011;53144;51.524;5.080;2023-06-14T09:44:00;6.40;;;2.55;;
66342;SDS011;53144;51.524;5.080;2023-06-14T09:46:27;3.45;;;2.00;;
66342;SDS011;53144;51.524;5.080;2023-06-14T09:48:54;6.30;;;2.72;;
66342;SDS011;53144;51.524;5.080;2023-06-14T09:51:20;2.83;;;1.92;;
66342;SDS011;53144;51.524;5.080;2023-06-14T09:53:48;4.18;;;2.53;;
66342;SDS011;53144;51.524;5.080;2023-06-14T09:56:22;6.55;;;2.72;;
66342;SDS011;53144;51.524;5.080;2023-06-14T09:58:55;6.88;;;2.22;;
66342;SDS011;53144;51.524;5.080;2023-06-14T10:01:26;3.53;;;1.88;;
66342;SDS011;53144;51.524;5.080;2023-06-14T10:03:55;3.15;;;2.40;;
66342;SDS011;53144;51.524;5.080;2023-06-14T10:06:31;5.85;;;2.08;;
66342;SDS011;53144;51.524;5.080;2023-06-14T10:08:59;7.47;;;2.22;;
66342;SDS011;53144;51.524;5.080;2023-06-14T10:11:25;7.82;;;1.85;;
66342;SDS011;53144;51.524;5.080;2023-06-14T10:13:51;3.47;;;2.13;;
66342;SDS011;53144;51.524;5.080;2023-06-14T10:16:22;7.60;;;2.15;;
66342;SDS011;53144;51.524;5.080;2023-06-14T10:19:00;2.78;;;1.67;;
66342;SDS011;53144;51.524;5.080;2023-06-14T10:24:15;6.65;;;1.50;;
66342;SDS011;53144;51.524;5.080;2023-06-14T10:26:53;4.32;;;1.77;;
66342;SDS011;53144;51.524;5.080;2023-06-14T10:29:21;5.47;;;1.40;;
66342;SDS011;53144;51.524;5.080;2023-06-14T10:31:47;8.57;;;1.70;;
66342;SDS011;53144;51.524;5.080;2023-06-14T10:34:24;3.50;;;1.60;;
66342;SDS011;53144;51.524;5.080;2023-06-14T10:39:51;1.92;;;1.35;;
66342;SDS011;53144;51.524;5.080;2023-06-14T10:42:18;4.68;;;1.73;;
66342;SDS011;53144;51.524;5.080;2023-06-14T10:44:51;4.45;;;1.70;;
66342;SDS011;53144;51.524;5.080;2023-06-14T10:47:29;4.68;;;1.52;;
66342;SDS011;53144;51.524;5.080;2023-06-14T10:50:04;4.28;;;2.78;;
66342;SDS011;53144;51.524;5.080;2023-06-14T10:52:38;3.42;;;1.70;;
66342;SDS011;53144;51.524;5.080;2023-06-14T10:57:33;1.77;;;1.58;;
66342;SDS011;53144;51.524;5.080;2023-06-14T11:00:00;5.43;;;1.67;;
66342;SDS011;53144;51.524;5.080;2023-06-14T11:05:13;2.25;;;1.52;;
66342;SDS011;53144;51.524;5.080;2023-06-14T11:10:43;5.95;;;1.95;;
66342;SDS011;53144;51.524;5.080;2023-06-14T11:13:10;14.07;;;2.35;;
66342;SDS011;53144;51.524;5.080;2023-06-14T11:15:36;4.80;;;1.75;;
66342;SDS011;53144;51.524;5.080;2023-06-14T11:18:04;4.32;;;1.83;;
66342;SDS011;53144;51.524;5.080;2023-06-14T11:20:32;3.92;;;1.85;;
66342;SDS011;53144;51.524;5.080;2023-06-14T11:22:58;1.92;;;1.60;;
66342;SDS011;53144;51.524;5.080;2023-06-14T11:25:25;4.30;;;1.80;;
66342;SDS011;53144;51.524;5.080;2023-06-14T11:27:53;2.30;;;1.60;;
66342;SDS011;53144;51.524;5.080;2023-06-14T11:30:19;2.20;;;2.00;;
66342;SDS011;53144;51.524;5.080;2023-06-14T11:32:48;5.38;;;1.85;;
66342;SDS011;53144;51.524;5.080;2023-06-14T11:35:15;3.05;;;1.77;;
66342;SDS011;53144;51.524;5.080;2023-06-14T11:37:41;7.85;;;2.05;;
66342;SDS011;53144;51.524;5.080;2023-06-14T11:40:08;5.68;;;2.03;;
66342;SDS011;53144;51.524;5.080;2023-06-14T11:42:35;1.70;;;1.60;;
66342;SDS011;53144;51.524;5.080;2023-06-14T11:45:01;3.38;;;1.83;;
66342;SDS011;53144;51.524;5.080;2023-06-14T11:47:31;4.25;;;2.10;;
66342;SDS011;53144;51.524;5.080;2023-06-14T11:49:58;4.18;;;1.90;;
66342;SDS011;53144;51.524;5.080;2023-06-14T11:52:24;3.90;;;2.05;;
66342;SDS011;53144;51.524;5.080;2023-06-14T11:54:50;3.20;;;1.90;;
66342;SDS011;53144;51.524;5.080;2023-06-14T11:57:17;5.53;;;2.00;;
66342;SDS011;53144;51.524;5.080;2023-06-14T11:59:43;3.50;;;1.90;;
66342;SDS011;53144;51.524;5.080;2023-06-14T12:02:17;3.85;;;1.80;;
66342;SDS011;53144;51.524;5.080;2023-06-14T12:04:48;3.40;;;1.80;;
66342;SDS011;53144;51.524;5.080;2023-06-14T12:07:14;3.17;;;1.70;;
66342;SDS011;53144;51.524;5.080;2023-06-14T12:09:42;4.65;;;1.73;;
66342;SDS011;53144;51.524;5.080;2023-06-14T12:12:28;3.55;;;1.80;;
66342;SDS011;53144;51.524;5.080;2023-06-14T12:14:57;2.13;;;1.73;;
66342;SDS011;53144;51.524;5.080;2023-06-14T12:17:24;4.13;;;1.83;;
66342;SDS011;53144;51.524;5.080;2023-06-14T12:19:50;2.45;;;1.70;;
66342;SDS011;53144;51.524;5.080;2023-06-14T12:22:16;1.73;;;1.63;;
66342;SDS011;53144;51.524;5.080;2023-06-14T12:24:45;7.03;;;3.17;;
66342;SDS011;53144;51.524;5.080;2023-06-14T12:27:11;5.30;;;2.47;;
66342;SDS011;53144;51.524;5.080;2023-06-14T12:29:40;6.45;;;2.33;;
66342;SDS011;53144;51.524;5.080;2023-06-14T12:32:08;4.13;;;1.88;;
66342;SDS011;53144;51.524;5.080;2023-06-14T12:34:34;3.72;;;1.70;;
66342;SDS011;53144;51.524;5.080;2023-06-14T12:37:00;3.60;;;2.10;;
66342;SDS011;53144;51.524;5.080;2023-06-14T12:39:26;3.25;;;2.03;;
66342;SDS011;53144;51.524;5.080;2023-06-14T12:41:51;2.22;;;1.50;;
66342;SDS011;53144;51.524;5.080;2023-06-14T12:44:17;4.20;;;1.90;;
66342;SDS011;53144;51.524;5.080;2023-06-14T12:46:42;2.22;;;1.80;;
66342;SDS011;53144;51.524;5.080;2023-06-14T12:49:11;3.40;;;1.70;;
66342;SDS011;53144;51.524;5.080;2023-06-14T12:51:37;4.90;;;2.08;;
66342;SDS011;53144;51.524;5.080;2023-06-14T12:54:03;4.13;;;1.77;;
66342;SDS011;53144;51.524;5.080;2023-06-14T12:56:29;6.35;;;2.10;;
66342;SDS011;53144;51.524;5.080;2023-06-14T12:58:54;4.32;;;1.90;;
66342;SDS011;53144;51.524;5.080;2023-06-14T13:01:20;5.28;;;2.15;;
66342;SDS011;53144;51.524;5.080;2023-06-14T13:03:46;4.22;;;1.90;;
66342;SDS011;53144;51.524;5.080;2023-06-14T13:06:12;3.92;;;2.00;;
66342;SDS011;53144;51.524;5.080;2023-06-14T13:08:37;2.30;;;1.90;;
66342;SDS011;53144;51.524;5.080;2023-06-14T13:11:03;5.55;;;1.70;;
66342;SDS011;53144;51.524;5.080;2023-06-14T13:13:28;5.30;;;1.98;;
66342;SDS011;53144;51.524;5.080;2023-06-14T13:15:54;4.60;;;1.90;;
66342;SDS011;53144;51.524;5.080;2023-06-14T13:18:19;5.65;;;1.77;;
66342;SDS011;53144;51.524;5.080;2023-06-14T13:20:48;3.15;;;1.70;;
66342;SDS011;53144;51.524;5.080;2023-06-14T13:23:15;4.35;;;1.90;;
66342;SDS011;53144;51.524;5.080;2023-06-14T13:25:41;3.45;;;1.80;;
66342;SDS011;53144;51.524;5.080;2023-06-14T13:28:07;2.33;;;1.80;;
66342;SDS011;53144;51.524;5.080;2023-06-14T13:30:32;2.05;;;1.85;;
66342;SDS011;53144;51.524;5.080;2023-06-14T13:32:58;4.05;;;2.15;;
66342;SDS011;53144;51.524;5.080;2023-06-14T13:35:24;4.93;;;1.90;;
66342;SDS011;53144;51.524;5.080;2023-06-14T13:37:50;2.17;;;1.80;;
66342;SDS011;53144;51.524;5.080;2023-06-14T13:40:16;5.05;;;1.75;;
66342;SDS011;53144;51.524;5.080;2023-06-14T13:42:42;2.22;;;1.88;;
66342;SDS011;53144;51.524;5.080;2023-06-14T13:45:08;1.83;;;1.73;;
66342;SDS011;53144;51.524;5.080;2023-06-14T13:47:35;4.28;;;1.90;;
66342;SDS011;53144;51.524;5.080;2023-06-14T13:50:00;2.47;;;1.90;;
66342;SDS011;53144;51.524;5.080;2023-06-14T13:52:26;4.88;;;2.10;;
66342;SDS011;53144;51.524;5.080;2023-06-14T13:54:51;4.50;;;1.80;;
66342;SDS011;53144;51.524;5.080;2023-06-14T13:57:17;1.70;;;1.60;;
66342;SDS011;53144;51.524;5.080;2023-06-14T13:59:43;4.07;;;1.92;;
66342;SDS011;53144;51.524;5.080;2023-06-14T14:02:12;2.10;;;1.90;;
66342;SDS011;53144;51.524;5.080;2023-06-14T14:04:38;1.80;;;1.67;;
66342;SDS011;53144;51.524;5.080;2023-06-14T14:07:04;3.72;;;1.73;;
66342;SDS011;53144;51.524;5.080;2023-06-14T14:09:31;5.32;;;1.80;;
66342;SDS011;53144;51.524;5.080;2023-06-14T14:12:00;2.05;;;1.73;;
66342;SDS011;53144;51.524;5.080;2023-06-14T14:14:27;2.42;;;1.70;;
66342;SDS011;53144;51.524;5.080;2023-06-14T14:16:53;1.77;;;1.60;;
66342;SDS011;53144;51.524;5.080;2023-06-14T14:19:20;3.22;;;2.05;;
66342;SDS011;53144;51.524;5.080;2023-06-14T14:21:46;3.75;;;1.77;;
66342;SDS011;53144;51.524;5.080;2023-06-14T14:24:11;4.90;;;1.80;;
66342;SDS011;53144;51.524;5.080;2023-06-14T14:26:37;1.63;;;1.30;;
66342;SDS011;53144;51.524;5.080;2023-06-14T14:29:02;2.10;;;1.60;;
66342;SDS011;53144;51.524;5.080;2023-06-14T14:31:28;2.30;;;1.70;;
66342;SDS011;53144;51.524;5.080;2023-06-14T14:33:53;3.13;;;1.77;;
66342;SDS011;53144;51.524;5.080;2023-06-14T14:36:19;3.33;;;1.50;;
66342;SDS011;53144;51.524;5.080;2023-06-14T14:38:45;2.88;;;1.73;;
66342;SDS011;53144;51.524;5.080;2023-06-14T14:41:12;2.85;;;1.50;;
66342;SDS011;53144;51.524;5.080;2023-06-14T14:43:37;2.17;;;1.70;;
66342;SDS011;53144;51.524;5.080;2023-06-14T14:46:03;3.88;;;1.70;;
66342;SDS011;53144;51.524;5.080;2023-06-14T14:48:28;1.95;;;1.45;;
66342;SDS011;53144;51.524;5.080;2023-06-14T14:50:54;3.38;;;1.80;;
66342;SDS011;53144;51.524;5.080;2023-06-14T14:53:19;4.20;;;1.63;;
66342;SDS011;53144;51.524;5.080;2023-06-14T14:55:45;5.35;;;1.92;;
66342;SDS011;53144;51.524;5.080;2023-06-14T14:58:11;4.07;;;1.60;;